• Join FlightAware (Why Join?)
  • Login
  • US Flag 
06:08PM EDT


 

Airport Tracker/Info


-or-


 

Live Flight TrackerFlight Track Log ✈ JBU216 ✈ 19-Apr-2013 ✈ KLGB - KJFK

Flight Track Log - Related Links

Times and Time Zones

All times are in EDT time to prevent confusion due to time zone crossing. See the JBU216 flight status page for this flight to view local times or setup timezone preferences in your user account.

Time Position Orientation Groundspeed Altitude Reporting Facility
EDT Latitude Longitude Course Direction KTS MPH feet Rate Location/Type
12:27AM 33.8200 -118.1540 140° Southeast 172 198  Level FlightAware
12:28AM 33.8380 -118.1750 316° Northwest 171 197 1,500 2,220 Climbing FlightAware
12:28AM 33.8450 -118.1850 310° West 189 217 1,700 720 Climbing FlightAware
12:28AM 33.8490 -118.1960 294° West 200 230 1,800 1,020 Climbing FlightAware
12:29AM 33.8370 -118.2280 246° West 238 274 2,400 1,680 Climbing FlightAware
12:29AM 33.8200 -118.2370 204° Southwest 249 287 3,100 2,760 Climbing FlightAware
12:29AM 33.7850 -118.2450 191° South 251 289 4,500 2,700 Climbing FlightAware
12:30AM 33.7580 -118.2510 190° South 252 290 5,600 2,520 Climbing FlightAware
12:30AM 33.7400 -118.2550 190° South 260 299 6,200 1,680 Climbing FlightAware
12:31AM 33.7030 -118.2650 193° South 266 306 6,900 960 Climbing FlightAware
12:31AM 33.6750 -118.2710 190° South 264 304 7,100 840 Climbing FlightAware
12:31AM 33.6430 -118.2520 154° Southeast 292 336 7,700 1,440 Climbing FlightAware
12:32AM 33.6340 -118.2300 116° Southeast 296 341 8,200 2,400 Climbing FlightAware
12:32AM 33.6320 -118.2100 97° East 293 337 8,700 2,520 Climbing FlightAware
12:32AM 33.6350 -118.1610 86° East 299 344 9,900 1,800 Climbing FlightAware
12:33AM 33.6370 -118.0910 88° East 334 384 10,800 1,620 Climbing FlightAware
12:34AM 33.6370 -118.0080 90° East 351 404 12,200 1,620 Climbing FlightAware
12:35AM 33.6370 -117.8940 90° East 384 442 13,500 1,440 Climbing FlightAware
12:35AM 33.6370 -117.8070 90° East 396 456 14,500 1,620 Climbing FlightAware
12:36AM 33.6370 -117.7140 90° East 403 464 15,800 1,620 Climbing FlightAware
12:37AM 33.6370 -117.6240 90° East 414 476 16,800 1,620 Climbing FlightAware
12:38AM 33.6370 -117.5160 90° East 424 488 18,100 1,500 Climbing FlightAware
12:38AM 33.6370 -117.4170 90° East 434 499 19,000 1,380 Climbing FlightAware
12:39AM 33.6370 -117.3120 90° East 440 506 20,100 1,440 Climbing FlightAware
12:40AM 33.6360 -117.2140 91° East 446 513 21,100 1,320 Climbing FlightAware
12:40AM 33.6360 -117.0990 90° East 456 525 22,000 1,080 Climbing FlightAware
12:41AM 33.6350 -116.9970 91° East 464 534 22,700 1,080 Climbing FlightAware
12:42AM 33.6350 -116.8920 90° East 469 540 23,500 1,080 Climbing FlightAware
12:42AM 33.6340 -116.7880 91° East 477 549 24,200 960 Climbing FlightAware
12:43AM 33.6330 -116.6860 91° East 481 554 24,800 900 Climbing FlightAware
12:44AM 33.6320 -116.5650 91° East 488 562 25,500 900 Climbing FlightAware
12:45AM 33.6310 -116.4400 91° East 495 570 26,200 600 Climbing FlightAware
12:45AM 33.6310 -116.3040 90° East 496 571 26,500 600 Climbing FlightAware
12:46AM 33.6400 -116.1570 86° East 500 575 27,300 1,080 Climbing FlightAware
12:47AM 33.6590 -116.0820 73° East 496 571 28,000 1,080 Climbing FlightAware
12:48AM 33.7070 -115.9610 64° Northeast 495 570 28,700 660 Climbing FlightAware
12:48AM 33.7580 -115.8320 65° Northeast 496 571 29,100 240 Climbing FlightAware
12:49AM 33.7920 -115.7480 64° Northeast 496 571 29,100  Level FlightAware
12:50AM 33.8260 -115.6630 64° Northeast 496 571 29,100  Level FlightAware
12:50AM 33.8600 -115.5790 64° Northeast 496 571 29,100  Level FlightAware
12:51AM 33.9030 -115.4730 64° Northeast 496 571 29,100  Level FlightAware
12:52AM 33.9370 -115.3890 64° Northeast 496 571 29,100 3,720 Level FlightAware
12:52AM 33.9794 -115.2600 64° Northeast 487 560 32,900 2,760 Climbing Los Angeles Center
12:53AM 34.0356 -115.1144 65° Northeast 481 554 32,900  Level Los Angeles Center
12:59AM 34.3650 -114.2550 65° Northeast 489 563 33,000  Climbing FlightAware
01:00AM 34.4030 -114.1540 65° Northeast 489 563 33,000  Level FlightAware
01:00AM 34.4370 -114.0650 65° Northeast 489 563 33,000  Level FlightAware
01:01AM 34.4600 -114.0020 66° East 490 564 33,000  Level FlightAware
01:02AM 34.5170 -113.8480 66° East 490 564 33,000  Level FlightAware
01:03AM 34.5610 -113.7300 66° East 491 565 33,000  Level FlightAware
01:03AM 34.5920 -113.6460 66° East 491 565 33,000  Level FlightAware
01:04AM 34.6350 -113.5280 66° East 492 566 33,000  Level FlightAware
01:05AM 34.6700 -113.4340 66° East 494 568 33,000  Level FlightAware
01:05AM 34.7140 -113.3140 66° East 494 568 33,000  Level FlightAware
01:06AM 34.7560 -113.1990 66° East 496 571 33,000  Level FlightAware
01:07AM 34.7860 -113.1160 66° East 496 571 33,000  Level FlightAware
01:07AM 34.8280 -113.0000 66° East 497 572 33,000  Level FlightAware
01:08AM 34.8550 -112.9240 67° East 497 572 33,000  Level FlightAware
01:09AM 34.8930 -112.8190 66° East 501 577 33,000  Level FlightAware
01:10AM 34.9490 -112.6650 66° East 505 581 33,000  Level FlightAware
01:10AM 34.9870 -112.5580 67° East 505 581 33,000  Level FlightAware
01:11AM 35.0230 -112.4550 67° East 505 581 33,000  Level FlightAware
01:11AM 35.0560 -112.3620 67° East 506 582 33,000  Level FlightAware
01:12AM 35.1030 -112.2300 66° East 507 583 33,000  Level FlightAware
01:13AM 35.1400 -112.1240 67° East 506 582 33,000  Level FlightAware
01:14AM 35.1880 -111.9890 66° East 506 582 33,000  Level FlightAware
01:15AM 35.2210 -111.8930 67° East 506 582 33,000  Level FlightAware
01:15AM 35.2630 -111.7730 67° East 505 581 33,000  Level FlightAware
01:16AM 35.2960 -111.6780 67° East 504 580 33,000  Level FlightAware
01:17AM 35.3300 -111.5790 67° East 505 581 33,000  Level FlightAware
01:17AM 35.3710 -111.4600 67° East 509 586 33,000  Level FlightAware
01:18AM 35.4230 -111.3100 67° East 510 587 33,000  Level FlightAware
01:19AM 35.4450 -111.2430 68° East 509 586 33,000  Level FlightAware
01:19AM 35.4760 -111.1540 67° East 511 588 33,000  Level FlightAware
01:20AM 35.5080 -111.0630 67° East 511 588 33,000  Level FlightAware
01:21AM 35.5570 -110.9130 68° East 511 588 33,000  Level FlightAware
01:21AM 35.5900 -110.8150 67° East 512 589 33,000  Level FlightAware
01:22AM 35.6350 -110.6850 67° East 512 589 33,000  Level FlightAware
01:23AM 35.6730 -110.5710 68° East 512 589 33,000  Level FlightAware
01:24AM 35.7040 -110.4790 67° East 512 589 33,000  Level FlightAware
01:24AM 35.7360 -110.3880 67° East 512 589 33,000  Level FlightAware
01:25AM 35.7670 -110.2970 67° East 512 589 33,000  Level FlightAware
01:26AM 35.8070 -110.1830 67° East 512 589 33,000  Level FlightAware
01:27AM 35.8380 -110.0910 67° East 512 589 33,000  Level FlightAware
01:27AM 35.8700 -110.0000 67° East 512 589 33,000  Level FlightAware
01:28AM 35.9010 -109.9080 67° East 512 589 33,000  Level FlightAware
01:29AM 35.9320 -109.8170 67° East 512 589 33,000  Level FlightAware
01:29AM 35.9720 -109.7020 67° East 512 589 33,000  Level FlightAware
01:30AM 36.0030 -109.6100 67° East 512 589 33,000  Level FlightAware
01:31AM 36.0350 -109.5190 66° East 512 589 33,000  Level FlightAware
01:31AM 36.0660 -109.4270 67° East 512 589 33,000  Level FlightAware
01:32AM 36.0980 -109.3350 67° East 512 589 33,000  Level FlightAware
01:32AM 36.1803 -109.0075 67° East 512 589 33,000  Level Denver Center
01:33AM 36.2317 -108.8472 68° East 512 589 33,000  Level Denver Center
01:34AM 36.2822 -108.6872 69° East 514 592 33,000  Level Denver Center
01:35AM 36.3400 -108.5017 69° East 514 592 33,000  Level Denver Center
01:36AM 36.3881 -108.3439 69° East 511 588 33,000  Level Denver Center
01:37AM 36.4369 -108.1850 69° East 512 589 33,000  Level Denver Center
01:38AM 36.4939 -108.0022 69° East 510 587 33,000  Level Denver Center
01:39AM 36.5419 -107.8425 69° East 512 589 33,000  Level Denver Center
01:40AM 36.5900 -107.6847 69° East 514 592 33,000  Level Denver Center
01:41AM 36.6375 -107.5264 69° East 511 588 33,000  Level Denver Center
01:42AM 36.6939 -107.3389 69° East 517 595 33,000  Level Denver Center
01:43AM 36.7422 -107.1778 69° East 519 597 33,000  Level Denver Center
01:44AM 36.7892 -107.0161 70° East 519 597 33,000  Level Denver Center
01:46AM 36.8439 -106.8303 70° East 513 590 33,000  Level Denver Center
01:47AM 36.8914 -106.6689 70° East 517 595 33,000  Level Denver Center
01:48AM 36.9392 -106.5108 69° East 509 586 33,000  Level Denver Center
01:49AM 36.9911 -106.3261 71° East 506 582 33,000  Level Denver Center
01:50AM 37.0375 -106.1678 70° East 505 581 33,000  Level Denver Center
01:51AM 37.0828 -106.0100 70° East 504 580 33,000 120 Level Denver Center
01:57AM 37.3699 -104.9790 70° East 490 564 34,200 180 Climbing FlightAware ADS-B
01:57AM 37.3924 -104.8960 71° East 493 567 34,600 720 Climbing FlightAware ADS-B
01:58AM 37.4166 -104.8070 71° East 491 565 35,000 300 Climbing FlightAware ADS-B
01:58AM 37.4421 -104.7130 71° East 492 566 35,000  Level FlightAware ADS-B
02:00AM 37.4990 -104.5020 71° East 495 570 35,000  Level FlightAware ADS-B
02:00AM 37.5214 -104.4190 71° East 495 570 35,000  Level FlightAware ADS-B
02:01AM 37.5440 -104.3350 71° East 495 570 35,000  Level FlightAware ADS-B
02:01AM 37.5658 -104.2530 71° East 495 570 35,000  Level FlightAware ADS-B
02:02AM 37.5968 -104.1370 71° East 494 568 35,000  Level FlightAware ADS-B
02:02AM 37.6191 -104.0520 72° East 496 571 35,000  Level FlightAware ADS-B
02:03AM 37.6419 -103.9660 71° East 495 570 35,000  Level FlightAware ADS-B
02:03AM 37.6638 -103.8830 72° East 495 570 35,000  Level FlightAware ADS-B
02:04AM 37.6858 -103.7990 72° East 495 570 35,000  Level FlightAware ADS-B
02:04AM 37.7073 -103.7160 72° East 496 571 35,000  Level FlightAware ADS-B
02:05AM 37.7290 -103.6320 72° East 497 572 35,000  Level FlightAware ADS-B
02:05AM 37.7508 -103.5480 72° East 497 572 35,000  Level FlightAware ADS-B
02:06AM 37.7722 -103.4650 72° East 496 571 35,000  Level FlightAware ADS-B
02:06AM 37.7938 -103.3810 72° East 496 571 35,000  Level FlightAware ADS-B
02:07AM 37.8152 -103.2980 72° East 494 568 35,000  Level FlightAware ADS-B
02:07AM 37.8363 -103.2160 72° East 492 566 35,000  Level FlightAware ADS-B
02:08AM 37.8572 -103.1340 72° East 489 563 35,000  Level FlightAware ADS-B
02:08AM 37.8779 -103.0520 72° East 488 562 35,000  Level FlightAware ADS-B
02:09AM 37.8986 -102.9700 72° East 489 563 35,000  Level FlightAware ADS-B
02:10AM 37.9200 -102.8860 72° East 489 563 35,000  Level FlightAware ADS-B
02:10AM 37.9408 -102.8030 72° East 491 565 35,000  Level FlightAware ADS-B
02:11AM 37.9614 -102.7210 72° East 492 566 35,000  Level FlightAware ADS-B
02:11AM 37.9823 -102.6380 72° East 493 567 35,000  Level FlightAware ADS-B
02:12AM 38.0030 -102.5550 72° East 494 568 35,000  Level FlightAware ADS-B
02:12AM 38.0235 -102.4720 73° East 494 568 35,000  Level FlightAware ADS-B
02:13AM 38.0441 -102.3890 72° East 492 566 35,000  Level FlightAware ADS-B
02:13AM 38.0647 -102.3050 73° East 493 567 35,000  Level FlightAware ADS-B
02:14AM 38.0853 -102.2210 73° East 495 570 35,000  Level FlightAware ADS-B
02:14AM 38.1060 -102.1370 73° East 498 573 35,000  Level FlightAware ADS-B
02:15AM 38.1266 -102.0530 73° East 499 574 35,000  Level FlightAware ADS-B
02:15AM 38.1475 -101.9670 73° East 502 578 35,000  Level FlightAware ADS-B
02:16AM 38.1681 -101.8830 73° East 502 578 35,000  Level FlightAware ADS-B
02:16AM 38.1719 -101.8639 73° East 498 573 35,000  Level Kansas City Center
02:16AM 38.1850 -101.8092 73° East 501 577 35,000  Level Denver Center
02:17AM 38.2311 -101.6203 73° East 499 574 35,000  Level Denver Center
02:18AM 38.2689 -101.4617 73° East 492 566 35,000  Level Denver Center
02:19AM 38.3061 -101.3028 73° East 488 562 35,000  Level Denver Center
02:20AM 38.3442 -101.1444 73° East 487 560 35,000  Level Denver Center
02:21AM 38.3806 -100.9844 74° East 489 563 35,000  Level Denver Center
02:22AM 38.4231 -100.7981 74° East 489 563 35,000  Level Denver Center
02:23AM 38.4600 -100.6400 73° East 486 559 35,000  Level Denver Center
02:24AM 38.5028 -100.4544 74° East 485 558 35,000  Level Denver Center
02:25AM 38.5386 -100.2953 74° East 486 559 35,000  Level Denver Center
02:26AM 38.5739 -100.1364 74° East 486 559 35,000  Level Denver Center
02:27AM 38.6100 -99.9772 74° East 488 562 35,000  Level Denver Center
02:28AM 38.6506 -99.7931 74° East 482 555 35,000  Level Denver Center
02:29AM 38.6858 -99.6333 74° East 485 558 35,000  Level Denver Center
02:30AM 38.7211 -99.4747 74° East 486 559 35,000  Level Denver Center
02:31AM 38.7433 -99.3656 75° East 484 557 35,000  Level Kansas City Center
02:32AM 38.7792 -99.1972 75° East 487 560 35,000  Level Kansas City Center
02:33AM 38.8161 -99.0300 74° East 487 560 35,000  Level Kansas City Center
02:34AM 38.8525 -98.8642 74° East 483 556 35,000  Level Kansas City Center
02:35AM 38.8869 -98.6983 75° East 480 552 35,000  Level Kansas City Center
02:36AM 38.9222 -98.5322 75° East 481 554 35,000  Level Kansas City Center
02:37AM 38.9558 -98.3658 75° East 480 552 35,000  Level Kansas City Center
02:38AM 38.9906 -98.2000 75° East 480 552 35,000  Level Kansas City Center
02:39AM 39.0239 -98.0331 76° East 479 551 35,000  Level Kansas City Center
02:40AM 39.0583 -97.8675 75° East 480 552 35,000  Level Kansas City Center
02:41AM 39.0967 -97.6806 75° East 481 554 35,000  Level Kansas City Center
02:42AM 39.1281 -97.5219 76° East 481 554 35,000  Level Kansas City Center
02:43AM 39.1594 -97.3639 76° East 477 549 35,000  Level Kansas City Center
02:44AM 39.1903 -97.2064 76° East 474 545 35,000 -60 Level Kansas City Center
02:45AM 39.2253 -97.0250 76° East 469 540 34,900  Descending Kansas City Center
02:51AM 39.3530 -96.3560 76° East 490 564 35,000  Climbing FlightAware
02:51AM 39.3820 -96.2000 76° East 494 568 35,000  Level FlightAware
02:52AM 39.4040 -96.0790 77° East 497 572 35,000  Level FlightAware
02:53AM 39.4290 -95.9450 76° East 499 574 35,000  Level FlightAware
02:53AM 39.4480 -95.8420 77° East 499 574 35,000  Level FlightAware
02:54AM 39.4670 -95.7360 77° East 499 574 35,000  Level FlightAware
02:55AM 39.4890 -95.6180 76° East 499 574 35,000  Level FlightAware
02:55AM 39.5130 -95.4820 77° East 498 573 35,000  Level FlightAware
02:56AM 39.5360 -95.3540 77° East 496 571 35,000  Level FlightAware
02:57AM 39.5620 -95.2090 77° East 494 568 35,000  Level FlightAware
02:58AM 39.5810 -95.0960 78° East 494 568 35,000  Level FlightAware
02:58AM 39.5910 -95.0440 76° East 494 568 35,000  Level FlightAware
02:59AM 39.6050 -94.9590 78° East 496 571 35,000  Level FlightAware
03:00AM 39.6840 -94.5040 77° East 502 578 35,000  Level FlightAware
03:00AM 39.7040 -94.3870 77° East 504 580 35,000  Level FlightAware
03:01AM 39.7250 -94.2570 78° East 507 583 35,000  Level FlightAware
03:02AM 39.7450 -94.1370 78° East 508 585 35,000  Level FlightAware
03:02AM 39.7650 -94.0180 78° East 511 588 35,000  Level FlightAware
03:03AM 39.7880 -93.8810 78° East 512 589 35,000  Level FlightAware
03:04AM 39.8080 -93.7600 78° East 511 588 35,000  Level FlightAware
03:04AM 39.8270 -93.6400 78° East 511 588 35,000  Level FlightAware
03:05AM 39.8480 -93.5090 78° East 511 588 35,000  Level FlightAware
03:06AM 39.8670 -93.3870 78° East 509 586 35,000  Level FlightAware
03:07AM 39.8890 -93.2510 78° East 506 582 35,000  Level FlightAware
03:07AM 39.9100 -93.1200 78° East 505 581 35,000  Level FlightAware
03:08AM 39.9290 -92.9990 78° East 505 581 35,000  Level FlightAware
03:09AM 39.9500 -92.8640 78° East 506 582 35,000  Level FlightAware
03:09AM 39.9680 -92.7430 79° East 506 582 35,000  Level FlightAware
03:10AM 39.9880 -92.6130 79° East 506 582 35,000  Level FlightAware
03:11AM 40.0070 -92.4900 79° East 507 583 35,000  Level FlightAware
03:12AM 40.0250 -92.3700 79° East 508 585 35,000  Level FlightAware
03:12AM 40.0420 -92.2540 79° East 508 585 35,000  Level FlightAware
03:13AM 40.0620 -92.1200 79° East 508 585 35,000  Level FlightAware
03:14AM 40.0800 -91.9970 79° East 507 583 35,000  Level FlightAware
03:14AM 40.1000 -91.8590 79° East 507 583 35,000  Level FlightAware
03:15AM 40.1170 -91.7400 79° East 506 582 35,000  Level FlightAware
03:16AM 40.1360 -91.6060 79° East 506 582 35,000  Level FlightAware
03:16AM 40.1540 -91.4850 79° East 507 583 35,000  Level FlightAware
03:17AM 40.1710 -91.3640 80° East 508 585 35,000  Level FlightAware
03:18AM 40.1900 -91.2270 80° East 509 586 35,000  Level FlightAware
03:19AM 40.2060 -91.1100 80° East 509 586 35,000  Level FlightAware
03:19AM 40.2250 -90.9760 79° East 510 587 35,000  Level FlightAware
03:20AM 40.2410 -90.8530 80° East 511 588 35,000  Level FlightAware
03:21AM 40.2580 -90.7280 80° East 512 589 35,000  Level FlightAware
03:21AM 40.2770 -90.5880 80° East 513 590 35,000  Level FlightAware
03:22AM 40.2920 -90.4730 80° East 513 590 35,000  Level FlightAware
03:23AM 40.3110 -90.3300 80° East 514 592 35,000  Level FlightAware
03:23AM 40.3260 -90.2100 81° East 514 592 35,000  Level FlightAware
03:24AM 40.3430 -90.0850 80° East 515 593 35,000  Level FlightAware
03:25AM 40.3600 -89.9490 81° East 517 595 35,000  Level FlightAware
03:26AM 40.3760 -89.8250 80° East 517 595 35,000  Level FlightAware
03:26AM 40.3940 -89.6840 80° East 516 594 35,000  Level FlightAware
03:27AM 40.4090 -89.5640 81° East 516 594 35,000  Level FlightAware
03:28AM 40.4240 -89.4410 81° East 516 594 35,000  Level FlightAware
03:28AM 40.4410 -89.2970 81° East 516 594 35,000  Level FlightAware
03:29AM 40.4560 -89.1760 81° East 517 595 35,000  Level FlightAware
03:30AM 40.4710 -89.0520 81° East 518 596 35,000  Level FlightAware
03:30AM 40.4880 -88.9110 81° East 519 597 35,000  Level FlightAware
03:31AM 40.5020 -88.7860 82° East 522 601 35,000  Level FlightAware
03:32AM 40.5190 -88.6460 81° East 525 604 35,000  Level FlightAware
03:33AM 40.5330 -88.5200 82° East 528 608 35,000  Level FlightAware
03:33AM 40.5490 -88.3770 82° East 532 612 35,000  Level FlightAware
03:34AM 40.5640 -88.2490 81° East 534 615 35,000  Level FlightAware
03:35AM 40.5780 -88.1210 82° East 538 619 35,000  Level FlightAware
03:35AM 40.5950 -87.9710 81° East 539 620 35,000  Level FlightAware
03:36AM 40.6060 -87.8660 82° East 539 620 35,000  Level FlightAware
03:37AM 40.6240 -87.6990 82° East 536 617 35,000  Level FlightAware
03:37AM 40.6380 -87.5700 82° East 535 616 35,000  Level FlightAware
03:38AM 40.6520 -87.4400 82° East 534 615 35,000  Level FlightAware
03:39AM 40.6670 -87.2930 82° East 536 617 35,000  Level FlightAware
03:40AM 40.6800 -87.1640 82° East 536 617 35,000  Level FlightAware
03:40AM 40.6930 -87.0340 82° East 535 616 35,000  Level FlightAware
03:41AM 40.7070 -86.8960 82° East 535 616 35,000  Level FlightAware
03:41AM 40.7170 -86.7970 82° East 534 615 35,000  Level FlightAware
03:42AM 40.7300 -86.6670 82° East 534 615 35,000  Level FlightAware
03:43AM 40.7430 -86.5370 82° East 535 616 35,000  Level FlightAware
03:44AM 40.7560 -86.3980 83° East 535 616 35,000  Level FlightAware
03:44AM 40.7690 -86.2640 83° East 536 617 35,000  Level FlightAware
03:45AM 40.7790 -86.1510 83° East 535 616 35,000  Level FlightAware
03:46AM 40.7940 -85.9900 83° East 534 615 35,000  Level FlightAware
03:46AM 40.8050 -85.8770 83° East 535 616 35,000  Level FlightAware
03:47AM 40.8190 -85.7160 83° East 535 616 35,000  Level FlightAware
03:48AM 40.8310 -85.5820 83° East 535 616 35,000  Level FlightAware
03:48AM 40.8430 -85.4390 84° East 535 616 35,000  Level FlightAware
03:49AM 40.8550 -85.3070 83° East 537 618 35,000  Level FlightAware
03:50AM 40.8660 -85.1790 83° East 539 620 35,000  Level FlightAware
03:51AM 40.8780 -85.0290 84° East 542 624 35,000  Level FlightAware
03:51AM 40.8880 -84.9090 84° East 543 625 35,000  Level FlightAware
03:52AM 40.9000 -84.7660 84° East 544 626 35,000  Level FlightAware
03:53AM 40.9120 -84.6200 84° East 542 624 35,000  Level FlightAware
03:53AM 40.9220 -84.4870 84° East 543 625 35,000  Level FlightAware
03:54AM 40.9340 -84.3370 84° East 544 626 35,000  Level FlightAware
03:55AM 40.9440 -84.2060 84° East 547 629 35,000  Level FlightAware
03:55AM 40.9550 -84.0580 84° East 549 632 35,000  Level FlightAware
03:56AM 40.9650 -83.9220 84° East 548 631 35,000  Level FlightAware
03:57AM 40.9750 -83.7890 84° East 549 632 35,000  Level FlightAware
03:58AM 40.9850 -83.6400 85° East 548 631 35,000  Level FlightAware
03:58AM 40.9950 -83.5100 84° East 548 631 35,000  Level FlightAware
03:59AM 41.0050 -83.3540 85° East 547 629 35,000  Level FlightAware
04:00AM 41.0140 -83.2240 85° East 546 628 35,000  Level FlightAware
04:00AM 41.0220 -83.0980 85° East 544 626 35,000  Level FlightAware
04:01AM 41.0330 -82.9440 85° East 542 624 35,000  Level FlightAware
04:02AM 41.0420 -82.8080 85° East 538 619 35,000  Level FlightAware
04:02AM 41.0500 -82.6790 85° East 536 617 35,000  Level FlightAware
04:03AM 41.0580 -82.5340 86° East 535 616 35,000  Level FlightAware
04:04AM 41.0660 -82.4050 85° East 534 615 35,000  Level FlightAware
04:04AM 41.0740 -82.2750 85° East 534 615 35,000  Level FlightAware
04:05AM 41.0830 -82.1220 85° East 534 615 35,000  Level FlightAware
04:06AM 41.0900 -81.9920 86° East 535 616 35,000  Level FlightAware
04:07AM 41.0980 -81.8510 86° East 538 619 35,000  Level FlightAware
04:07AM 41.1050 -81.7170 86° East 538 619 35,000  Level FlightAware
04:08AM 41.1140 -81.5670 85° East 540 621 35,000  Level FlightAware
04:09AM 41.1200 -81.4370 86° East 543 625 35,000  Level FlightAware
04:09AM 41.1270 -81.3010 86° East 545 627 35,000  Level FlightAware
04:10AM 41.1340 -81.1540 86° East 544 626 35,000  Level FlightAware
04:11AM 41.1410 -81.0170 86° East 543 625 35,000  Level FlightAware
04:12AM 41.1480 -80.8720 86° East 540 621 35,000  Level FlightAware
04:12AM 41.1540 -80.7460 86° East 538 619 35,000  Level FlightAware
04:13AM 41.1600 -80.6060 87° East 535 616 35,000  Level FlightAware
04:14AM 41.1670 -80.4590 86° East 535 616 35,000 -120 Level FlightAware
04:14AM 41.1720 -80.3330 87° East 537 618 34,900  Descending FlightAware
04:15AM 41.1770 -80.2040 87° East 538 619 35,000 60 Climbing FlightAware
04:16AM 41.1840 -80.0500 86° East 536 617 35,000  Level FlightAware
04:17AM 41.1910 -79.8870 87° East 526 605 35,000  Level FlightAware
04:17AM 41.1950 -79.7500 88° East 522 601 35,000  Level FlightAware
04:18AM 41.2000 -79.6010 87° East 531 611 35,000  Level FlightAware
04:19AM 41.2050 -79.4690 87° East 529 609 35,000  Level FlightAware
04:19AM 41.2100 -79.3250 87° East 530 610 35,000  Level FlightAware
04:20AM 41.2130 -79.2140 88° East 531 611 35,000  Level FlightAware
04:25AM 41.2380 -78.3540 88° East 35,000  Level FlightAware
04:25AM 41.2410 -78.2160 88° East 523 602 35,000  Level FlightAware
04:26AM 41.2450 -78.0490 88° East 526 605 35,000  Level FlightAware
04:27AM 41.2480 -77.8990 88° East 533 613 35,000  Level FlightAware
04:28AM 41.2510 -77.7660 88° East 533 613 35,000  Level FlightAware
04:28AM 41.2540 -77.6170 88° East 533 613 35,000  Level FlightAware
04:29AM 41.2560 -77.4900 89° East 513 590 35,000  Level FlightAware
04:30AM 41.2592 -77.3020 89° East 512 589 35,000  Level FlightAware ADS-B
04:30AM 41.2606 -77.1981 89° East 514 592 35,000  Level FlightAware ADS-B
04:31AM 41.2619 -77.1031 89° East 516 594 35,000  Level FlightAware ADS-B
04:31AM 41.2633 -77.0054 89° East 522 601 35,000  Level FlightAware ADS-B
04:32AM 41.2645 -76.9080 89° East 524 603 35,000  Level FlightAware ADS-B
04:32AM 41.2656 -76.8102 89° East 526 605 35,000 60 Level FlightAware ADS-B
04:33AM 41.2669 -76.7113 89° East 524 603 35,100 60 Climbing FlightAware ADS-B
04:33AM 41.2679 -76.6151 89° East 523 602 35,100 -120 Level FlightAware ADS-B
04:34AM 41.2687 -76.5179 89° East 521 600 35,000 -120 Descending FlightAware ADS-B
04:35AM 41.2695 -76.4216 89° East 520 598 35,000 -120 Level FlightAware ADS-B
04:35AM 41.2702 -76.3264 89° East 518 596 34,900 -600 Descending FlightAware ADS-B
04:36AM 41.2709 -76.2311 89° East 509 586 34,400 -1,200 Descending FlightAware ADS-B
04:36AM 41.2715 -76.1377 89° East 504 580 33,700 -1,740 Descending FlightAware ADS-B
04:37AM 41.2720 -76.0444 90° East 500 575 32,700 -2,100 Descending FlightAware ADS-B
04:37AM 41.2724 -75.9514 90° East 493 567 31,600 -2,220 Descending FlightAware ADS-B
04:38AM 41.2727 -75.8603 90° East 485 558 30,500 -2,040 Descending FlightAware ADS-B
04:38AM 41.2712 -75.8018 92° East 471 542 29,900 -2,100 Descending FlightAware ADS-B
04:38AM 41.2671 -75.7502 96° East 468 539 29,200 -2,100 Descending FlightAware ADS-B
04:39AM 41.2584 -75.6865 100° East 463 533 28,500 -2,100 Descending FlightAware ADS-B
04:39AM 41.2481 -75.6332 104° East 457 526 27,700 -2,340 Descending FlightAware ADS-B
04:39AM 41.2337 -75.5758 108° East 445 512 26,900 -2,340 Descending FlightAware ADS-B
04:39AM 41.2222 -75.5380 112° Southeast 440 506 26,300 -2,400 Descending FlightAware ADS-B
04:40AM 41.1972 -75.4635 114° Southeast 446 513 25,100 -2,400 Descending FlightAware ADS-B
04:40AM 41.1716 -75.3872 114° Southeast 448 516 23,900 -1,980 Descending FlightAware ADS-B
04:41AM 41.1467 -75.3115 114° Southeast 442 509 23,100 -900 Descending FlightAware ADS-B
04:42AM 41.1215 -75.2366 114° Southeast 448 516 23,000 -120 Descending FlightAware ADS-B
04:42AM 41.0961 -75.1612 114° Southeast 442 509 23,000  Level FlightAware ADS-B
04:43AM 41.0708 -75.0867 114° Southeast 441 507 23,000 -120 Level FlightAware ADS-B
04:43AM 41.0452 -75.0120 114° Southeast 446 513 22,900 -720 Descending FlightAware ADS-B
04:44AM 41.0190 -74.9355 114° Southeast 436 502 22,300 -1,440 Descending FlightAware ADS-B
04:44AM 41.0061 -74.8972 114° Southeast 429 494 21,800 -1,860 Descending FlightAware ADS-B
04:44AM 40.9993 -74.8734 111° Southeast 436 502 21,500 -1,800 Descending FlightAware ADS-B
04:44AM 40.9957 -74.8563 106° East 445 512 21,300 -1,320 Descending FlightAware ADS-B
04:44AM 40.9928 -74.8371 101° East 452 520 21,200 -540 Descending FlightAware ADS-B
04:45AM 40.9837 -74.7533 98° East 462 532 21,000 -540 Descending FlightAware ADS-B
04:45AM 40.9745 -74.6676 98° East 459 528 20,700 -600 Descending FlightAware ADS-B
04:46AM 40.9680 -74.6070 98° East 459 528 20,500 -600 Descending FlightAware ADS-B
04:46AM 40.9650 -74.5800 98° East 457 526 20,400 -480 Descending FlightAware ADS-B
04:46AM 40.9559 -74.4970 98° East 453 521 20,200 -540 Descending FlightAware ADS-B
04:47AM 40.9468 -74.4153 98° East 451 519 19,900 -600 Descending FlightAware ADS-B
04:47AM 40.9376 -74.3329 98° East 449 517 19,600 -540 Descending FlightAware ADS-B
04:48AM 40.9290 -74.2568 98° East 449 517 19,400 -420 Descending FlightAware ADS-B
04:48AM 40.9284 -74.2512 98° East 450 518 19,400 -600 Level FlightAware ADS-B
04:48AM 40.9193 -74.1716 99° East 447 514 19,100 -540 Descending FlightAware ADS-B
04:48AM 40.9169 -74.1530 100° East 440 506 19,100 -480 Level FlightAware ADS-B
04:48AM 40.9141 -74.1397 106° East 430 495 19,000 -600 Descending FlightAware ADS-B
04:49AM 40.9111 -74.1292 111° Southeast 450 518 19,000  Level FlightAware ADS-B
04:49AM 40.9079 -74.1199 114° Southeast 415 478 19,000  Level FlightAware ADS-B
04:49AM 40.9037 -74.1103 120° Southeast 405 466 19,000  Level FlightAware ADS-B
04:49AM 40.8995 -74.1020 124° Southeast 397 457 19,000  Level FlightAware ADS-B
04:49AM 40.8988 -74.1009 130° Southeast 397 457 19,000  Level FlightAware ADS-B
04:49AM 40.8950 -74.0948 129° Southeast 389 448 19,000  Level FlightAware ADS-B
04:49AM 40.8893 -74.0870 134° Southeast 383 441 19,000  Level FlightAware ADS-B
04:49AM 40.8836 -74.0806 140° Southeast 373 429 19,000  Level FlightAware ADS-B
04:49AM 40.8778 -74.0752 145° Southeast 366 421 19,000  Level FlightAware ADS-B
04:49AM 40.8658 -74.0663 151° Southeast 356 410 19,000  Level FlightAware ADS-B
04:49AM 40.8588 -74.0617 154° Southeast 353 406 19,000 -480 Level FlightAware ADS-B
04:50AM 40.8253 -74.0403 154° Southeast 347 399 18,800 -1,020 Descending FlightAware ADS-B
04:50AM 40.8139 -74.0326 153° Southeast 346 398 18,500 -3,300 Descending FlightAware ADS-B
04:50AM 40.7940 -74.0195 154° Southeast 343 395 17,600 -3,900 Descending FlightAware ADS-B
04:50AM 40.7581 -73.9965 154° Southeast 343 395 16,000 -3,840 Descending FlightAware ADS-B
04:50AM 40.7507 -73.9919 155° Southeast 340 391 15,700 -3,480 Descending FlightAware ADS-B
04:51AM 40.7086 -73.9666 156° South 332 382 14,000 -3,600 Descending FlightAware ADS-B
04:51AM 40.6646 -73.9406 156° South 330 380 12,100 -2,640 Descending FlightAware ADS-B
04:52AM 40.6261 -73.9180 156° South 297 342 11,400 -1,740 Descending FlightAware ADS-B
04:52AM 40.5903 -73.8965 155° Southeast 270 311 10,400 -2,160 Descending FlightAware ADS-B
04:53AM 40.5779 -73.8879 152° Southeast 272 313 9,900 -3,000 Descending FlightAware ADS-B
04:53AM 40.5747 -73.8848 144° Southeast 280 322 9,700 -3,000 Descending FlightAware ADS-B
04:53AM 40.5714 -73.8809 138° Southeast 285 328 9,600 -1,740 Descending FlightAware ADS-B
04:53AM 40.5683 -73.8766 134° Southeast 288 331 9,500 -2,280 Descending FlightAware ADS-B
04:53AM 40.5585 -73.8598 128° Southeast 290 334 9,000 -2,820 Descending FlightAware ADS-B
04:53AM 40.5476 -73.8394 125° Southeast 292 336 8,300 -2,700 Descending FlightAware ADS-B
04:54AM 40.5360 -73.8176 125° Southeast 284 327 7,700 -2,640 Descending FlightAware ADS-B
04:54AM 40.5245 -73.7962 125° Southeast 277 319 7,000 -2,520 Descending FlightAware ADS-B
04:54AM 40.5126 -73.7746 126° Southeast 270 311 6,400 -2,400 Descending FlightAware ADS-B
04:54AM 40.5059 -73.7630 127° Southeast 268 308 6,000 -2,760 Descending FlightAware ADS-B
04:54AM 40.4964 -73.7474 129° Southeast 267 307 5,400 -2,880 Descending FlightAware ADS-B
04:55AM 40.4902 -73.7376 130° Southeast 271 312 5,000 -3,000 Descending FlightAware ADS-B
04:55AM 40.4869 -73.7315 125° Southeast 276 318 4,800 -3,780 Descending FlightAware ADS-B
04:55AM 40.4843 -73.7258 121° Southeast 283 326 4,500 -4,500 Descending FlightAware ADS-B
04:55AM 40.4821 -73.7191 113° Southeast 291 335 4,200 -3,780 Descending FlightAware ADS-B
04:55AM 40.4805 -73.7119 106° East 298 343 4,000 -4,320 Descending FlightAware ADS-B
04:55AM 40.4797 -73.7064 101° East 301 346 3,700 -3,900 Descending FlightAware ADS-B
04:55AM 40.4799 -73.6864 89° East 308 354 3,100 -2,100 Descending FlightAware ADS-B
04:56AM 40.4960 -73.6450 63° Northeast 268 308 2,300 -1,020 Descending FlightAware
04:56AM 40.5180 -73.6070 53° Northeast 234 269 2,100 -240 Descending FlightAware
04:56AM 40.5400 -73.5930 26° Northeast 209 241 2,100 60 Level FlightAware
04:57AM 40.5640 -73.6060 338° Northwest 184 212 2,200 60 Climbing FlightAware
04:57AM 40.5800 -73.6210 325° Northwest 175 201 2,200  Level FlightAware
04:58AM 40.5850 -73.6300 306° West 160 184 2,200 -300 Level FlightAware
04:58AM 40.6020 -73.6670 301° West 129 148 1,900 -480 Descending FlightAware
04:59AM 40.6090 -73.6830 300° West 129 148 1,600 -780 Descending FlightAware
04:59AM 40.6190 -73.7040 302° West 128 147 1,200 -780 Descending FlightAware
05:00AM 40.6260 -73.7210 298° West 129 148 900 -660 Descending FlightAware
05:00AM 40.6360 -73.7420 302° West 128 147 600 -720 Descending FlightAware
05:01AM 40.6440 -73.7610 299° West 130 150 200 -720 Descending FlightAware
05:01AM 40.6490 -73.7710 303° West 107 123 100 -420 Descending FlightAware